sensor_id;sensor_type;location;lat;lon;timestamp;temperature;humidity
9564;DHT22;4820;50.870;4.702;2023-08-30T00:00:45;14.50;99.90
9564;DHT22;4820;50.870;4.702;2023-08-30T00:03:11;14.50;99.90
9564;DHT22;4820;50.870;4.702;2023-08-30T00:05:41;14.50;99.90
9564;DHT22;4820;50.870;4.702;2023-08-30T00:08:08;14.50;99.90
9564;DHT22;4820;50.870;4.702;2023-08-30T00:10:34;14.50;99.90
9564;DHT22;4820;50.870;4.702;2023-08-30T00:13:00;14.50;99.90
9564;DHT22;4820;50.870;4.702;2023-08-30T00:15:26;14.40;99.90
9564;DHT22;4820;50.870;4.702;2023-08-30T00:17:51;14.40;99.90
9564;DHT22;4820;50.870;4.702;2023-08-30T00:20:21;14.40;99.90
9564;DHT22;4820;50.870;4.702;2023-08-30T00:22:47;14.40;99.90
9564;DHT22;4820;50.870;4.702;2023-08-30T00:25:16;14.40;99.90
9564;DHT22;4820;50.870;4.702;2023-08-30T00:27:43;14.40;99.90
9564;DHT22;4820;50.870;4.702;2023-08-30T00:30:09;14.40;99.90
9564;DHT22;4820;50.870;4.702;2023-08-30T00:32:35;14.40;99.90
9564;DHT22;4820;50.870;4.702;2023-08-30T00:35:01;14.40;99.90
9564;DHT22;4820;50.870;4.702;2023-08-30T00:37:27;14.50;99.90
9564;DHT22;4820;50.870;4.702;2023-08-30T00:39:53;14.50;99.90
9564;DHT22;4820;50.870;4.702;2023-08-30T00:42:18;14.50;99.90
9564;DHT22;4820;50.870;4.702;2023-08-30T00:44:44;14.50;99.90
9564;DHT22;4820;50.870;4.702;2023-08-30T00:47:10;14.50;99.90
9564;DHT22;4820;50.870;4.702;2023-08-30T00:49:36;14.50;99.90
9564;DHT22;4820;50.870;4.702;2023-08-30T00:52:07;14.50;99.90
9564;DHT22;4820;50.870;4.702;2023-08-30T00:54:34;14.60;99.90
9564;DHT22;4820;50.870;4.702;2023-08-30T00:57:01;14.60;99.90
9564;DHT22;4820;50.870;4.702;2023-08-30T00:59:27;14.70;99.90
9564;DHT22;4820;50.870;4.702;2023-08-30T01:01:53;14.70;99.90
9564;DHT22;4820;50.870;4.702;2023-08-30T01:04:20;14.70;99.90
9564;DHT22;4820;50.870;4.702;2023-08-30T01:06:46;14.70;99.90
9564;DHT22;4820;50.870;4.702;2023-08-30T01:09:11;14.70;99.90
9564;DHT22;4820;50.870;4.702;2023-08-30T01:12:12;14.80;99.90
9564;DHT22;4820;50.870;4.702;2023-08-30T01:15:03;14.80;99.90
9564;DHT22;4820;50.870;4.702;2023-08-30T01:17:32;14.80;99.90
9564;DHT22;4820;50.870;4.702;2023-08-30T01:20:04;14.80;99.90
9564;DHT22;4820;50.870;4.702;2023-08-30T01:22:53;14.70;99.90
9564;DHT22;4820;50.870;4.702;2023-08-30T01:28:21;14.60;99.90
9564;DHT22;4820;50.870;4.702;2023-08-30T01:30:48;14.50;99.90
9564;DHT22;4820;50.870;4.702;2023-08-30T01:33:15;14.50;99.90
9564;DHT22;4820;50.870;4.702;2023-08-30T01:35:43;14.50;99.90
9564;DHT22;4820;50.870;4.702;2023-08-30T01:38:09;14.40;99.90
9564;DHT22;4820;50.870;4.702;2023-08-30T01:40:39;14.40;99.90
9564;DHT22;4820;50.870;4.702;2023-08-30T01:43:07;14.40;99.90
9564;DHT22;4820;50.870;4.702;2023-08-30T01:45:36;14.40;99.90
9564;DHT22;4820;50.870;4.702;2023-08-30T01:48:04;14.40;99.90
9564;DHT22;4820;50.870;4.702;2023-08-30T01:50:32;14.40;99.90
9564;DHT22;4820;50.870;4.702;2023-08-30T01:52:59;14.40;99.90
9564;DHT22;4820;50.870;4.702;2023-08-30T01:55:26;14.40;99.90
9564;DHT22;4820;50.870;4.702;2023-08-30T01:57:53;14.40;99.90
9564;DHT22;4820;50.870;4.702;2023-08-30T02:00:19;14.50;99.90
9564;DHT22;4820;50.870;4.702;2023-08-30T02:02:46;14.50;99.90
9564;DHT22;4820;50.870;4.702;2023-08-30T02:05:12;14.50;99.90
9564;DHT22;4820;50.870;4.702;2023-08-30T02:07:50;14.50;99.90
9564;DHT22;4820;50.870;4.702;2023-08-30T02:10:23;14.60;99.90
9564;DHT22;4820;50.870;4.702;2023-08-30T02:12:52;14.60;99.90
9564;DHT22;4820;50.870;4.702;2023-08-30T02:15:20;14.70;99.90
9564;DHT22;4820;50.870;4.702;2023-08-30T02:17:47;14.70;99.90
9564;DHT22;4820;50.870;4.702;2023-08-30T02:20:13;14.70;99.90
9564;DHT22;4820;50.870;4.702;2023-08-30T02:22:40;14.80;99.90
9564;DHT22;4820;50.870;4.702;2023-08-30T02:25:06;14.80;99.90
9564;DHT22;4820;50.870;4.702;2023-08-30T02:27:33;14.80;99.90
9564;DHT22;4820;50.870;4.702;2023-08-30T02:29:59;14.80;99.90
9564;DHT22;4820;50.870;4.702;2023-08-30T02:32:24;14.80;99.90
9564;DHT22;4820;50.870;4.702;2023-08-30T02:34:52;14.90;99.90
9564;DHT22;4820;50.870;4.702;2023-08-30T02:37:19;14.90;99.90
9564;DHT22;4820;50.870;4.702;2023-08-30T02:39:44;15.00;99.90
9564;DHT22;4820;50.870;4.702;2023-08-30T02:42:10;15.00;99.90
9564;DHT22;4820;50.870;4.702;2023-08-30T02:44:36;15.00;99.90
9564;DHT22;4820;50.870;4.702;2023-08-30T02:47:02;15.00;99.90
9564;DHT22;4820;50.870;4.702;2023-08-30T02:49:27;15.00;99.90
9564;DHT22;4820;50.870;4.702;2023-08-30T02:51:53;15.00;99.90
9564;DHT22;4820;50.870;4.702;2023-08-30T02:54:20;15.10;99.90
9564;DHT22;4820;50.870;4.702;2023-08-30T02:56:49;15.10;99.90
9564;DHT22;4820;50.870;4.702;2023-08-30T02:59:15;15.10;99.90
9564;DHT22;4820;50.870;4.702;2023-08-30T03:01:41;15.10;99.90
9564;DHT22;4820;50.870;4.702;2023-08-30T03:04:07;15.10;99.90
9564;DHT22;4820;50.870;4.702;2023-08-30T03:06:33;15.10;99.90
9564;DHT22;4820;50.870;4.702;2023-08-30T03:09:00;15.20;99.90
9564;DHT22;4820;50.870;4.702;2023-08-30T03:11:26;15.10;99.90
9564;DHT22;4820;50.870;4.702;2023-08-30T03:13:53;15.20;99.90
9564;DHT22;4820;50.870;4.702;2023-08-30T03:16:19;15.20;99.90
9564;DHT22;4820;50.870;4.702;2023-08-30T03:18:45;15.10;99.90
9564;DHT22;4820;50.870;4.702;2023-08-30T03:21:11;15.20;99.90
9564;DHT22;4820;50.870;4.702;2023-08-30T03:23:38;15.10;99.90
9564;DHT22;4820;50.870;4.702;2023-08-30T03:26:14;15.10;99.90
9564;DHT22;4820;50.870;4.702;2023-08-30T03:28:42;15.20;99.90
9564;DHT22;4820;50.870;4.702;2023-08-30T03:31:26;15.20;99.90
9564;DHT22;4820;50.870;4.702;2023-08-30T03:33:52;15.10;99.90
9564;DHT22;4820;50.870;4.702;2023-08-30T03:36:18;15.20;99.90
9564;DHT22;4820;50.870;4.702;2023-08-30T03:38:46;15.20;99.90
9564;DHT22;4820;50.870;4.702;2023-08-30T03:41:12;15.20;99.90
9564;DHT22;4820;50.870;4.702;2023-08-30T03:43:38;15.20;99.90
9564;DHT22;4820;50.870;4.702;2023-08-30T03:46:05;15.20;99.90
9564;DHT22;4820;50.870;4.702;2023-08-30T03:48:31;15.10;99.90
9564;DHT22;4820;50.870;4.702;2023-08-30T03:50:58;15.20;99.90
9564;DHT22;4820;50.870;4.702;2023-08-30T03:53:25;15.20;99.90
9564;DHT22;4820;50.870;4.702;2023-08-30T03:55:51;15.20;99.90
9564;DHT22;4820;50.870;4.702;2023-08-30T03:58:18;15.10;99.90
9564;DHT22;4820;50.870;4.702;2023-08-30T04:00:44;15.10;99.90
9564;DHT22;4820;50.870;4.702;2023-08-30T04:03:12;15.10;99.90
9564;DHT22;4820;50.870;4.702;2023-08-30T04:05:39;15.10;99.90
9564;DHT22;4820;50.870;4.702;2023-08-30T04:08:06;15.10;99.90
9564;DHT22;4820;50.870;4.702;2023-08-30T04:10:36;15.10;99.90
9564;DHT22;4820;50.870;4.702;2023-08-30T04:13:03;15.10;99.90
9564;DHT22;4820;50.870;4.702;2023-08-30T04:15:39;15.00;99.90
9564;DHT22;4820;50.870;4.702;2023-08-30T04:18:05;15.00;99.90
9564;DHT22;4820;50.870;4.702;2023-08-30T04:20:33;15.00;99.90
9564;DHT22;4820;50.870;4.702;2023-08-30T04:23:00;14.90;99.90
9564;DHT22;4820;50.870;4.702;2023-08-30T04:25:28;14.90;99.90
9564;DHT22;4820;50.870;4.702;2023-08-30T04:27:54;14.90;99.90
9564;DHT22;4820;50.870;4.702;2023-08-30T04:30:20;14.90;99.90
9564;DHT22;4820;50.870;4.702;2023-08-30T04:32:46;14.80;99.90
9564;DHT22;4820;50.870;4.702;2023-08-30T04:35:11;14.70;99.90
9564;DHT22;4820;50.870;4.702;2023-08-30T04:37:37;14.70;99.90
9564;DHT22;4820;50.870;4.702;2023-08-30T04:40:06;14.70;99.90
9564;DHT22;4820;50.870;4.702;2023-08-30T04:42:34;14.60;99.90
9564;DHT22;4820;50.870;4.702;2023-08-30T04:45:01;14.60;99.90
9564;DHT22;4820;50.870;4.702;2023-08-30T04:47:28;14.60;99.90
9564;DHT22;4820;50.870;4.702;2023-08-30T04:49:54;14.70;99.90
9564;DHT22;4820;50.870;4.702;2023-08-30T04:52:20;14.70;99.90
9564;DHT22;4820;50.870;4.702;2023-08-30T04:54:46;14.70;99.90
9564;DHT22;4820;50.870;4.702;2023-08-30T04:57:12;14.70;99.90
9564;DHT22;4820;50.870;4.702;2023-08-30T04:59:40;14.70;99.90
9564;DHT22;4820;50.870;4.702;2023-08-30T05:02:06;14.70;99.90
9564;DHT22;4820;50.870;4.702;2023-08-30T05:04:32;14.70;99.90
9564;DHT22;4820;50.870;4.702;2023-08-30T05:07:00;14.80;99.90
9564;DHT22;4820;50.870;4.702;2023-08-30T05:09:25;14.80;99.90
9564;DHT22;4820;50.870;4.702;2023-08-30T05:11:52;14.80;99.90
9564;DHT22;4820;50.870;4.702;2023-08-30T05:14:19;14.80;99.90
9564;DHT22;4820;50.870;4.702;2023-08-30T05:16:45;14.80;99.90
9564;DHT22;4820;50.870;4.702;2023-08-30T05:19:11;14.90;99.90
9564;DHT22;4820;50.870;4.702;2023-08-30T05:21:37;14.90;99.90
9564;DHT22;4820;50.870;4.702;2023-08-30T05:24:03;14.90;99.90
9564;DHT22;4820;50.870;4.702;2023-08-30T05:26:31;14.90;99.90
9564;DHT22;4820;50.870;4.702;2023-08-30T05:28:56;14.90;99.90
9564;DHT22;4820;50.870;4.702;2023-08-30T05:31:22;14.90;99.90
9564;DHT22;4820;50.870;4.702;2023-08-30T05:33:48;14.90;99.90
9564;DHT22;4820;50.870;4.702;2023-08-30T05:36:14;14.80;99.90
9564;DHT22;4820;50.870;4.702;2023-08-30T05:38:39;14.80;99.90
9564;DHT22;4820;50.870;4.702;2023-08-30T05:41:06;14.80;99.90
9564;DHT22;4820;50.870;4.702;2023-08-30T05:43:32;14.70;99.90
9564;DHT22;4820;50.870;4.702;2023-08-30T05:45:57;14.80;99.90
9564;DHT22;4820;50.870;4.702;2023-08-30T05:48:30;14.70;99.90
9564;DHT22;4820;50.870;4.702;2023-08-30T05:50:56;14.80;99.90
9564;DHT22;4820;50.870;4.702;2023-08-30T05:53:24;14.80;99.90
9564;DHT22;4820;50.870;4.702;2023-08-30T05:55:50;14.70;99.90
9564;DHT22;4820;50.870;4.702;2023-08-30T05:58:15;14.70;99.90
9564;DHT22;4820;50.870;4.702;2023-08-30T06:00:43;14.70;99.90
9564;DHT22;4820;50.870;4.702;2023-08-30T06:03:08;14.70;99.90
9564;DHT22;4820;50.870;4.702;2023-08-30T06:05:34;14.70;99.90
9564;DHT22;4820;50.870;4.702;2023-08-30T06:08:00;14.60;99.90
9564;DHT22;4820;50.870;4.702;2023-08-30T06:10:27;14.50;99.90
9564;DHT22;4820;50.870;4.702;2023-08-30T06:12:53;14.50;99.90
9564;DHT22;4820;50.870;4.702;2023-08-30T06:15:18;14.50;99.90
9564;DHT22;4820;50.870;4.702;2023-08-30T06:17:44;14.50;99.90
9564;DHT22;4820;50.870;4.702;2023-08-30T06:20:12;14.60;99.90
9564;DHT22;4820;50.870;4.702;2023-08-30T06:22:38;14.60;99.90
9564;DHT22;4820;50.870;4.702;2023-08-30T06:25:05;14.60;99.90
9564;DHT22;4820;50.870;4.702;2023-08-30T06:27:32;14.70;99.90
9564;DHT22;4820;50.870;4.702;2023-08-30T06:29:58;14.60;99.90
9564;DHT22;4820;50.870;4.702;2023-08-30T06:32:24;14.60;99.90
9564;DHT22;4820;50.870;4.702;2023-08-30T06:34:49;14.70;99.90
9564;DHT22;4820;50.870;4.702;2023-08-30T06:37:15;14.70;99.90
9564;DHT22;4820;50.870;4.702;2023-08-30T06:39:41;14.70;99.90
9564;DHT22;4820;50.870;4.702;2023-08-30T06:42:07;14.70;99.90
9564;DHT22;4820;50.870;4.702;2023-08-30T06:44:33;14.80;99.90
9564;DHT22;4820;50.870;4.702;2023-08-30T06:46:59;14.90;99.90
9564;DHT22;4820;50.870;4.702;2023-08-30T06:49:25;14.90;99.90
9564;DHT22;4820;50.870;4.702;2023-08-30T06:51:51;15.00;99.90
9564;DHT22;4820;50.870;4.702;2023-08-30T06:54:16;15.10;99.90
9564;DHT22;4820;50.870;4.702;2023-08-30T06:56:57;15.10;99.90
9564;DHT22;4820;50.870;4.702;2023-08-30T06:59:23;15.20;99.90
9564;DHT22;4820;50.870;4.702;2023-08-30T07:01:48;15.20;99.90
9564;DHT22;4820;50.870;4.702;2023-08-30T07:04:14;15.30;99.90
9564;DHT22;4820;50.870;4.702;2023-08-30T07:06:40;15.20;99.90
9564;DHT22;4820;50.870;4.702;2023-08-30T07:09:06;15.30;99.90
9564;DHT22;4820;50.870;4.702;2023-08-30T07:11:32;15.30;99.90
9564;DHT22;4820;50.870;4.702;2023-08-30T07:13:58;15.30;99.90
9564;DHT22;4820;50.870;4.702;2023-08-30T07:16:23;15.30;99.90
9564;DHT22;4820;50.870;4.702;2023-08-30T07:18:49;15.30;99.90
9564;DHT22;4820;50.870;4.702;2023-08-30T07:21:15;15.30;99.90
9564;DHT22;4820;50.870;4.702;2023-08-30T07:23:41;15.30;99.90
9564;DHT22;4820;50.870;4.702;2023-08-30T07:26:06;15.30;99.90
9564;DHT22;4820;50.870;4.702;2023-08-30T07:28:32;15.20;99.90
9564;DHT22;4820;50.870;4.702;2023-08-30T07:31:03;15.20;99.90
9564;DHT22;4820;50.870;4.702;2023-08-30T07:33:29;15.20;99.90
9564;DHT22;4820;50.870;4.702;2023-08-30T07:35:54;15.20;99.90
9564;DHT22;4820;50.870;4.702;2023-08-30T07:38:20;15.20;99.90
9564;DHT22;4820;50.870;4.702;2023-08-30T07:40:46;15.20;99.90
9564;DHT22;4820;50.870;4.702;2023-08-30T07:43:11;15.20;99.90
9564;DHT22;4820;50.870;4.702;2023-08-30T07:45:37;15.20;99.90
9564;DHT22;4820;50.870;4.702;2023-08-30T07:48:03;15.20;99.90
9564;DHT22;4820;50.870;4.702;2023-08-30T07:50:29;15.10;99.90
9564;DHT22;4820;50.870;4.702;2023-08-30T07:52:55;15.10;99.90
9564;DHT22;4820;50.870;4.702;2023-08-30T07:55:21;15.00;99.90
9564;DHT22;4820;50.870;4.702;2023-08-30T07:57:46;15.00;99.90
9564;DHT22;4820;50.870;4.702;2023-08-30T08:00:12;15.00;99.90
9564;DHT22;4820;50.870;4.702;2023-08-30T08:02:39;15.00;99.90
9564;DHT22;4820;50.870;4.702;2023-08-30T08:05:06;15.00;99.90
9564;DHT22;4820;50.870;4.702;2023-08-30T08:07:31;15.00;99.90
9564;DHT22;4820;50.870;4.702;2023-08-30T08:09:57;15.00;99.90
9564;DHT22;4820;50.870;4.702;2023-08-30T08:12:23;15.00;99.90
9564;DHT22;4820;50.870;4.702;2023-08-30T08:14:49;15.00;99.90
9564;DHT22;4820;50.870;4.702;2023-08-30T08:17:14;14.90;99.90
9564;DHT22;4820;50.870;4.702;2023-08-30T08:19:40;15.00;99.90
9564;DHT22;4820;50.870;4.702;2023-08-30T08:22:09;15.00;99.90
9564;DHT22;4820;50.870;4.702;2023-08-30T08:24:35;15.00;99.90
9564;DHT22;4820;50.870;4.702;2023-08-30T08:27:02;15.00;99.90
9564;DHT22;4820;50.870;4.702;2023-08-30T08:29:28;15.00;99.90
9564;DHT22;4820;50.870;4.702;2023-08-30T08:31:54;15.00;99.90
9564;DHT22;4820;50.870;4.702;2023-08-30T08:34:21;15.00;99.90
9564;DHT22;4820;50.870;4.702;2023-08-30T08:36:47;15.10;99.90
9564;DHT22;4820;50.870;4.702;2023-08-30T08:39:12;15.10;99.90
9564;DHT22;4820;50.870;4.702;2023-08-30T08:41:44;15.10;99.90
9564;DHT22;4820;50.870;4.702;2023-08-30T08:44:10;15.20;99.90
9564;DHT22;4820;50.870;4.702;2023-08-30T08:46:37;15.20;99.90
9564;DHT22;4820;50.870;4.702;2023-08-30T08:49:14;15.30;99.90
9564;DHT22;4820;50.870;4.702;2023-08-30T08:51:41;15.30;99.90
9564;DHT22;4820;50.870;4.702;2023-08-30T08:54:09;15.40;99.90
9564;DHT22;4820;50.870;4.702;2023-08-30T08:56:35;15.50;99.90
9564;DHT22;4820;50.870;4.702;2023-08-30T08:59:01;15.60;99.90
9564;DHT22;4820;50.870;4.702;2023-08-30T09:01:28;15.70;99.90
9564;DHT22;4820;50.870;4.702;2023-08-30T09:03:54;15.80;99.90
9564;DHT22;4820;50.870;4.702;2023-08-30T09:06:21;15.90;99.90
9564;DHT22;4820;50.870;4.702;2023-08-30T09:08:47;15.90;99.90
9564;DHT22;4820;50.870;4.702;2023-08-30T09:11:13;16.00;99.90
9564;DHT22;4820;50.870;4.702;2023-08-30T09:13:39;16.00;99.90
9564;DHT22;4820;50.870;4.702;2023-08-30T09:16:16;16.00;99.90
9564;DHT22;4820;50.870;4.702;2023-08-30T09:18:42;16.10;99.90
9564;DHT22;4820;50.870;4.702;2023-08-30T09:21:09;16.20;99.90
9564;DHT22;4820;50.870;4.702;2023-08-30T09:23:35;16.30;99.90
9564;DHT22;4820;50.870;4.702;2023-08-30T09:26:02;16.40;99.90
9564;DHT22;4820;50.870;4.702;2023-08-30T09:28:28;16.50;99.90
9564;DHT22;4820;50.870;4.702;2023-08-30T09:30:57;16.50;99.90
9564;DHT22;4820;50.870;4.702;2023-08-30T09:33:30;16.60;99.90
9564;DHT22;4820;50.870;4.702;2023-08-30T09:35:57;16.80;99.90
9564;DHT22;4820;50.870;4.702;2023-08-30T09:38:24;16.90;99.90
9564;DHT22;4820;50.870;4.702;2023-08-30T09:40:51;17.00;99.90
9564;DHT22;4820;50.870;4.702;2023-08-30T09:43:20;17.10;99.90
9564;DHT22;4820;50.870;4.702;2023-08-30T09:45:48;17.20;99.90
9564;DHT22;4820;50.870;4.702;2023-08-30T09:48:14;17.20;99.90
9564;DHT22;4820;50.870;4.702;2023-08-30T09:50:42;17.20;99.90
9564;DHT22;4820;50.870;4.702;2023-08-30T09:53:09;17.20;99.90
9564;DHT22;4820;50.870;4.702;2023-08-30T09:55:37;17.10;99.90
9564;DHT22;4820;50.870;4.702;2023-08-30T09:58:03;17.00;99.90
9564;DHT22;4820;50.870;4.702;2023-08-30T10:00:33;16.90;99.90
9564;DHT22;4820;50.870;4.702;2023-08-30T10:03:02;16.80;99.90
9564;DHT22;4820;50.870;4.702;2023-08-30T10:05:29;16.80;99.90
9564;DHT22;4820;50.870;4.702;2023-08-30T10:07:56;16.80;99.90
9564;DHT22;4820;50.870;4.702;2023-08-30T10:10:23;16.80;99.90
9564;DHT22;4820;50.870;4.702;2023-08-30T10:12:49;16.80;99.90
9564;DHT22;4820;50.870;4.702;2023-08-30T10:15:16;16.90;99.90
9564;DHT22;4820;50.870;4.702;2023-08-30T10:17:45;17.00;99.90
9564;DHT22;4820;50.870;4.702;2023-08-30T10:20:11;17.00;99.90
9564;DHT22;4820;50.870;4.702;2023-08-30T10:22:39;17.00;99.90
9564;DHT22;4820;50.870;4.702;2023-08-30T10:25:14;17.00;99.90
9564;DHT22;4820;50.870;4.702;2023-08-30T10:27:45;17.00;99.90
9564;DHT22;4820;50.870;4.702;2023-08-30T10:30:12;17.00;99.90
9564;DHT22;4820;50.870;4.702;2023-08-30T10:32:43;17.00;99.90
9564;DHT22;4820;50.870;4.702;2023-08-30T10:35:13;17.00;99.90
9564;DHT22;4820;50.870;4.702;2023-08-30T10:37:40;17.00;99.90
9564;DHT22;4820;50.870;4.702;2023-08-30T10:40:06;16.90;99.90
9564;DHT22;4820;50.870;4.702;2023-08-30T10:42:33;16.90;99.90
9564;DHT22;4820;50.870;4.702;2023-08-30T10:45:00;16.80;99.90
9564;DHT22;4820;50.870;4.702;2023-08-30T10:47:34;16.80;99.90
9564;DHT22;4820;50.870;4.702;2023-08-30T10:50:08;16.80;99.90
9564;DHT22;4820;50.870;4.702;2023-08-30T10:52:35;16.70;99.90
9564;DHT22;4820;50.870;4.702;2023-08-30T10:55:17;16.70;99.90
9564;DHT22;4820;50.870;4.702;2023-08-30T10:57:44;16.80;99.90
9564;DHT22;4820;50.870;4.702;2023-08-30T11:00:22;16.90;99.90
9564;DHT22;4820;50.870;4.702;2023-08-30T11:02:50;17.10;99.90
9564;DHT22;4820;50.870;4.702;2023-08-30T11:05:18;17.30;99.90
9564;DHT22;4820;50.870;4.702;2023-08-30T11:07:44;17.40;99.90
9564;DHT22;4820;50.870;4.702;2023-08-30T11:10:11;17.50;99.90
9564;DHT22;4820;50.870;4.702;2023-08-30T11:12:37;17.70;99.90
9564;DHT22;4820;50.870;4.702;2023-08-30T11:15:07;17.70;99.90
9564;DHT22;4820;50.870;4.702;2023-08-30T11:17:35;17.70;99.90
9564;DHT22;4820;50.870;4.702;2023-08-30T11:20:11;17.80;99.90
9564;DHT22;4820;50.870;4.702;2023-08-30T11:22:44;18.00;99.90
9564;DHT22;4820;50.870;4.702;2023-08-30T11:25:11;18.10;99.90
9564;DHT22;4820;50.870;4.702;2023-08-30T11:27:41;18.30;99.90
9564;DHT22;4820;50.870;4.702;2023-08-30T11:30:08;18.20;99.90
9564;DHT22;4820;50.870;4.702;2023-08-30T11:32:35;18.20;99.90
9564;DHT22;4820;50.870;4.702;2023-08-30T11:35:02;18.20;99.90
9564;DHT22;4820;50.870;4.702;2023-08-30T11:37:28;18.20;99.90
9564;DHT22;4820;50.870;4.702;2023-08-30T11:39:55;18.30;99.90
9564;DHT22;4820;50.870;4.702;2023-08-30T11:42:22;18.40;99.90
9564;DHT22;4820;50.870;4.702;2023-08-30T11:44:48;18.50;99.90
9564;DHT22;4820;50.870;4.702;2023-08-30T11:47:19;18.70;99.90
9564;DHT22;4820;50.870;4.702;2023-08-30T11:49:46;18.90;99.90
9564;DHT22;4820;50.870;4.702;2023-08-30T11:52:12;19.00;99.90
9564;DHT22;4820;50.870;4.702;2023-08-30T11:54:38;18.90;99.90
9564;DHT22;4820;50.870;4.702;2023-08-30T11:57:04;18.90;99.90
9564;DHT22;4820;50.870;4.702;2023-08-30T11:59:34;19.00;99.90
9564;DHT22;4820;50.870;4.702;2023-08-30T12:02:01;19.10;99.90
9564;DHT22;4820;50.870;4.702;2023-08-30T12:04:27;19.20;99.90
9564;DHT22;4820;50.870;4.702;2023-08-30T12:06:54;19.20;99.90
9564;DHT22;4820;50.870;4.702;2023-08-30T12:09:19;19.30;99.90
9564;DHT22;4820;50.870;4.702;2023-08-30T12:11:51;19.30;99.90
9564;DHT22;4820;50.870;4.702;2023-08-30T12:14:17;19.20;99.90
9564;DHT22;4820;50.870;4.702;2023-08-30T12:16:43;19.10;99.90
9564;DHT22;4820;50.870;4.702;2023-08-30T12:19:12;19.00;99.90
9564;DHT22;4820;50.870;4.702;2023-08-30T12:21:47;18.90;99.90
9564;DHT22;4820;50.870;4.702;2023-08-30T12:24:12;18.90;99.90
9564;DHT22;4820;50.870;4.702;2023-08-30T12:26:38;19.00;99.90
9564;DHT22;4820;50.870;4.702;2023-08-30T12:29:07;19.10;99.90
9564;DHT22;4820;50.870;4.702;2023-08-30T12:31:33;19.20;99.90
9564;DHT22;4820;50.870;4.702;2023-08-30T12:33:59;19.30;99.90
9564;DHT22;4820;50.870;4.702;2023-08-30T12:36:24;19.40;99.90
9564;DHT22;4820;50.870;4.702;2023-08-30T12:38:50;19.30;99.90
9564;DHT22;4820;50.870;4.702;2023-08-30T12:41:16;19.40;99.90
9564;DHT22;4820;50.870;4.702;2023-08-30T12:43:42;19.50;99.90
9564;DHT22;4820;50.870;4.702;2023-08-30T12:46:07;19.50;99.90
9564;DHT22;4820;50.870;4.702;2023-08-30T12:48:33;19.50;99.90
9564;DHT22;4820;50.870;4.702;2023-08-30T12:50:59;19.50;99.90
9564;DHT22;4820;50.870;4.702;2023-08-30T12:53:24;19.50;99.90
9564;DHT22;4820;50.870;4.702;2023-08-30T12:55:50;19.40;99.90
9564;DHT22;4820;50.870;4.702;2023-08-30T12:58:15;19.20;99.90
9564;DHT22;4820;50.870;4.702;2023-08-30T13:00:41;19.20;99.90
9564;DHT22;4820;50.870;4.702;2023-08-30T13:03:08;19.10;99.90
9564;DHT22;4820;50.870;4.702;2023-08-30T13:05:33;19.10;99.90
9564;DHT22;4820;50.870;4.702;2023-08-30T13:08:00;19.10;99.90
9564;DHT22;4820;50.870;4.702;2023-08-30T13:10:27;19.10;99.90
9564;DHT22;4820;50.870;4.702;2023-08-30T13:12:52;19.30;99.90
9564;DHT22;4820;50.870;4.702;2023-08-30T13:15:18;19.50;99.90
9564;DHT22;4820;50.870;4.702;2023-08-30T13:17:44;19.70;99.90
9564;DHT22;4820;50.870;4.702;2023-08-30T13:20:10;19.80;99.90
9564;DHT22;4820;50.870;4.702;2023-08-30T13:22:36;19.90;99.90
9564;DHT22;4820;50.870;4.702;2023-08-30T13:25:02;20.00;99.90
9564;DHT22;4820;50.870;4.702;2023-08-30T13:27:29;20.20;99.90
9564;DHT22;4820;50.870;4.702;2023-08-30T13:29:55;20.20;99.90
9564;DHT22;4820;50.870;4.702;2023-08-30T13:32:21;20.30;99.90
9564;DHT22;4820;50.870;4.702;2023-08-30T13:34:47;20.20;99.90
9564;DHT22;4820;50.870;4.702;2023-08-30T13:37:13;20.10;99.90
9564;DHT22;4820;50.870;4.702;2023-08-30T13:39:40;20.20;99.90
9564;DHT22;4820;50.870;4.702;2023-08-30T13:42:06;20.40;99.90
9564;DHT22;4820;50.870;4.702;2023-08-30T13:44:31;20.40;99.90
9564;DHT22;4820;50.870;4.702;2023-08-30T13:47:06;20.30;99.90
9564;DHT22;4820;50.870;4.702;2023-08-30T13:49:31;20.30;99.90
9564;DHT22;4820;50.870;4.702;2023-08-30T13:51:58;20.30;99.90
9564;DHT22;4820;50.870;4.702;2023-08-30T13:54:24;20.30;99.90
9564;DHT22;4820;50.870;4.702;2023-08-30T13:56:50;20.10;99.90
9564;DHT22;4820;50.870;4.702;2023-08-30T13:59:16;20.20;99.90
9564;DHT22;4820;50.870;4.702;2023-08-30T14:01:41;20.20;99.90
9564;DHT22;4820;50.870;4.702;2023-08-30T14:04:08;20.10;99.90
9564;DHT22;4820;50.870;4.702;2023-08-30T14:06:33;20.00;99.90
9564;DHT22;4820;50.870;4.702;2023-08-30T14:08:59;20.00;99.90
9564;DHT22;4820;50.870;4.702;2023-08-30T14:11:25;20.10;99.90
9564;DHT22;4820;50.870;4.702;2023-08-30T14:13:51;20.20;99.90
9564;DHT22;4820;50.870;4.702;2023-08-30T14:16:16;20.20;99.90
9564;DHT22;4820;50.870;4.702;2023-08-30T14:18:43;20.30;99.90
9564;DHT22;4820;50.870;4.702;2023-08-30T14:21:08;20.40;99.90
9564;DHT22;4820;50.870;4.702;2023-08-30T14:23:34;20.20;99.90
9564;DHT22;4820;50.870;4.702;2023-08-30T14:26:06;20.10;99.90
9564;DHT22;4820;50.870;4.702;2023-08-30T14:28:44;20.10;99.90
9564;DHT22;4820;50.870;4.702;2023-08-30T14:31:10;20.10;99.90
9564;DHT22;4820;50.870;4.702;2023-08-30T14:33:36;20.10;99.90
9564;DHT22;4820;50.870;4.702;2023-08-30T14:36:03;20.20;99.90
9564;DHT22;4820;50.870;4.702;2023-08-30T14:38:29;20.10;99.90
9564;DHT22;4820;50.870;4.702;2023-08-30T14:40:59;20.00;99.90
9564;DHT22;4820;50.870;4.702;2023-08-30T14:43:25;19.90;99.90
9564;DHT22;4820;50.870;4.702;2023-08-30T14:45:51;19.90;99.90
9564;DHT22;4820;50.870;4.702;2023-08-30T14:48:24;19.90;99.90
9564;DHT22;4820;50.870;4.702;2023-08-30T14:50:52;19.80;99.90
9564;DHT22;4820;50.870;4.702;2023-08-30T14:53:18;19.70;99.90
9564;DHT22;4820;50.870;4.702;2023-08-30T14:55:44;19.60;99.90
9564;DHT22;4820;50.870;4.702;2023-08-30T14:58:10;19.60;99.90
9564;DHT22;4820;50.870;4.702;2023-08-30T15:00:36;19.50;99.90
9564;DHT22;4820;50.870;4.702;2023-08-30T15:03:02;19.50;99.90
9564;DHT22;4820;50.870;4.702;2023-08-30T15:05:27;19.50;99.90
9564;DHT22;4820;50.870;4.702;2023-08-30T15:07:53;19.70;99.90
9564;DHT22;4820;50.870;4.702;2023-08-30T15:10:19;19.70;99.90
9564;DHT22;4820;50.870;4.702;2023-08-30T15:12:44;19.70;99.90
9564;DHT22;4820;50.870;4.702;2023-08-30T15:15:11;19.70;99.90
9564;DHT22;4820;50.870;4.702;2023-08-30T15:17:37;19.70;99.90
9564;DHT22;4820;50.870;4.702;2023-08-30T15:20:03;19.60;99.90
9564;DHT22;4820;50.870;4.702;2023-08-30T15:22:29;19.60;99.90
9564;DHT22;4820;50.870;4.702;2023-08-30T15:24:55;19.60;99.90
9564;DHT22;4820;50.870;4.702;2023-08-30T15:27:20;19.60;99.90
9564;DHT22;4820;50.870;4.702;2023-08-30T15:29:47;19.60;99.90
9564;DHT22;4820;50.870;4.702;2023-08-30T15:32:17;19.60;99.90
9564;DHT22;4820;50.870;4.702;2023-08-30T15:34:43;19.60;99.90
9564;DHT22;4820;50.870;4.702;2023-08-30T15:37:09;19.60;99.90
9564;DHT22;4820;50.870;4.702;2023-08-30T15:39:39;19.70;99.90
9564;DHT22;4820;50.870;4.702;2023-08-30T15:42:05;19.60;99.90
9564;DHT22;4820;50.870;4.702;2023-08-30T15:44:31;19.50;99.90
9564;DHT22;4820;50.870;4.702;2023-08-30T15:46:57;19.50;99.90
9564;DHT22;4820;50.870;4.702;2023-08-30T15:49:22;19.40;99.90
9564;DHT22;4820;50.870;4.702;2023-08-30T15:51:48;19.40;99.90
9564;DHT22;4820;50.870;4.702;2023-08-30T15:54:14;19.40;99.90
9564;DHT22;4820;50.870;4.702;2023-08-30T15:56:41;19.40;99.90
9564;DHT22;4820;50.870;4.702;2023-08-30T15:59:07;19.50;99.90
9564;DHT22;4820;50.870;4.702;2023-08-30T16:01:33;19.60;99.90
9564;DHT22;4820;50.870;4.702;2023-08-30T16:03:58;19.70;99.90